sensor_id;sensor_type;location;lat;lon;timestamp;P1;durP1;ratioP1;P2;durP2;ratioP2
31596;SDS011;18201;50.978;7.034;2022-10-22T00:00:04;22.02;;;8.15;;
31596;SDS011;18201;50.978;7.034;2022-10-22T00:00:35;13.63;;;7.90;;
31596;SDS011;18201;50.978;7.034;2022-10-22T00:01:06;19.08;;;7.63;;
31596;SDS011;18201;50.978;7.034;2022-10-22T00:01:38;15.52;;;7.55;;
31596;SDS011;18201;50.978;7.034;2022-10-22T00:02:09;15.55;;;8.45;;
31596;SDS011;18201;50.978;7.034;2022-10-22T00:02:40;15.32;;;8.55;;
31596;SDS011;18201;50.978;7.034;2022-10-22T00:03:12;9.68;;;7.63;;
31596;SDS011;18201;50.978;7.034;2022-10-22T00:03:43;15.30;;;8.10;;
31596;SDS011;18201;50.978;7.034;2022-10-22T00:04:14;13.38;;;8.15;;
31596;SDS011;18201;50.978;7.034;2022-10-22T00:04:46;13.32;;;7.70;;
31596;SDS011;18201;50.978;7.034;2022-10-22T00:05:17;9.90;;;7.55;;
31596;SDS011;18201;50.978;7.034;2022-10-22T00:05:48;22.45;;;8.15;;
31596;SDS011;18201;50.978;7.034;2022-10-22T00:06:19;15.23;;;8.45;;
31596;SDS011;18201;50.978;7.034;2022-10-22T00:06:51;15.25;;;8.10;;
31596;SDS011;18201;50.978;7.034;2022-10-22T00:07:22;18.35;;;8.90;;
31596;SDS011;18201;50.978;7.034;2022-10-22T00:07:53;14.70;;;8.63;;
31596;SDS011;18201;50.978;7.034;2022-10-22T00:08:24;13.10;;;7.95;;
31596;SDS011;18201;50.978;7.034;2022-10-22T00:08:56;17.05;;;7.32;;
31596;SDS011;18201;50.978;7.034;2022-10-22T00:09:27;16.20;;;7.78;;
31596;SDS011;18201;50.978;7.034;2022-10-22T00:09:57;13.77;;;7.75;;
31596;SDS011;18201;50.978;7.034;2022-10-22T00:10:29;13.52;;;7.80;;
31596;SDS011;18201;50.978;7.034;2022-10-22T00:11:06;10.68;;;7.63;;
31596;SDS011;18201;50.978;7.034;2022-10-22T00:11:38;17.98;;;8.63;;
31596;SDS011;18201;50.978;7.034;2022-10-22T00:12:10;8.63;;;7.15;;
31596;SDS011;18201;50.978;7.034;2022-10-22T00:12:42;10.98;;;7.97;;
31596;SDS011;18201;50.978;7.034;2022-10-22T00:13:12;11.60;;;8.25;;
31596;SDS011;18201;50.978;7.034;2022-10-22T00:13:45;10.25;;;7.07;;
31596;SDS011;18201;50.978;7.034;2022-10-22T00:14:18;12.23;;;7.32;;
31596;SDS011;18201;50.978;7.034;2022-10-22T00:14:49;12.05;;;7.22;;
31596;SDS011;18201;50.978;7.034;2022-10-22T00:15:20;10.80;;;7.78;;
31596;SDS011;18201;50.978;7.034;2022-10-22T00:15:52;11.20;;;7.18;;
31596;SDS011;18201;50.978;7.034;2022-10-22T00:16:23;8.35;;;7.20;;
31596;SDS011;18201;50.978;7.034;2022-10-22T00:16:53;12.15;;;7.13;;
31596;SDS011;18201;50.978;7.034;2022-10-22T00:17:25;14.25;;;7.20;;
31596;SDS011;18201;50.978;7.034;2022-10-22T00:17:56;15.25;;;8.05;;
31596;SDS011;18201;50.978;7.034;2022-10-22T00:18:27;9.25;;;7.35;;
31596;SDS011;18201;50.978;7.034;2022-10-22T00:18:58;9.32;;;6.80;;
31596;SDS011;18201;50.978;7.034;2022-10-22T00:19:30;11.32;;;7.07;;
31596;SDS011;18201;50.978;7.034;2022-10-22T00:20:01;11.45;;;7.25;;
31596;SDS011;18201;50.978;7.034;2022-10-22T00:20:33;10.32;;;6.65;;
31596;SDS011;18201;50.978;7.034;2022-10-22T00:21:05;11.93;;;7.32;;
31596;SDS011;18201;50.978;7.034;2022-10-22T00:21:36;10.15;;;6.70;;
31596;SDS011;18201;50.978;7.034;2022-10-22T00:22:07;8.65;;;6.85;;
31596;SDS011;18201;50.978;7.034;2022-10-22T00:22:39;17.70;;;7.90;;
31596;SDS011;18201;50.978;7.034;2022-10-22T00:23:10;17.30;;;8.00;;
31596;SDS011;18201;50.978;7.034;2022-10-22T00:23:41;14.07;;;7.53;;
31596;SDS011;18201;50.978;7.034;2022-10-22T00:24:14;8.18;;;6.30;;
31596;SDS011;18201;50.978;7.034;2022-10-22T00:24:44;10.90;;;6.68;;
31596;SDS011;18201;50.978;7.034;2022-10-22T00:25:15;10.63;;;7.30;;
31596;SDS011;18201;50.978;7.034;2022-10-22T00:25:47;11.75;;;7.03;;
31596;SDS011;18201;50.978;7.034;2022-10-22T00:26:18;10.88;;;6.25;;
31596;SDS011;18201;50.978;7.034;2022-10-22T00:26:49;7.70;;;6.53;;
31596;SDS011;18201;50.978;7.034;2022-10-22T00:27:21;13.35;;;7.18;;
31596;SDS011;18201;50.978;7.034;2022-10-22T00:27:52;12.95;;;6.60;;
31596;SDS011;18201;50.978;7.034;2022-10-22T00:28:23;9.68;;;5.82;;
31596;SDS011;18201;50.978;7.034;2022-10-22T00:28:57;18.17;;;7.50;;
31596;SDS011;18201;50.978;7.034;2022-10-22T00:29:28;11.10;;;7.50;;
31596;SDS011;18201;50.978;7.034;2022-10-22T00:29:59;9.95;;;6.53;;
31596;SDS011;18201;50.978;7.034;2022-10-22T00:30:30;8.73;;;6.30;;
31596;SDS011;18201;50.978;7.034;2022-10-22T00:31:01;10.07;;;6.85;;
31596;SDS011;18201;50.978;7.034;2022-10-22T00:31:32;10.20;;;6.68;;
31596;SDS011;18201;50.978;7.034;2022-10-22T00:32:04;9.13;;;5.70;;
31596;SDS011;18201;50.978;7.034;2022-10-22T00:32:35;10.70;;;6.00;;
31596;SDS011;18201;50.978;7.034;2022-10-22T00:33:06;8.32;;;5.82;;
31596;SDS011;18201;50.978;7.034;2022-10-22T00:33:38;10.95;;;7.55;;
31596;SDS011;18201;50.978;7.034;2022-10-22T00:34:09;11.82;;;6.32;;
31596;SDS011;18201;50.978;7.034;2022-10-22T00:34:40;7.43;;;5.50;;
31596;SDS011;18201;50.978;7.034;2022-10-22T00:35:12;8.40;;;6.18;;
31596;SDS011;18201;50.978;7.034;2022-10-22T00:35:43;8.32;;;6.30;;
31596;SDS011;18201;50.978;7.034;2022-10-22T00:36:14;10.02;;;6.25;;
31596;SDS011;18201;50.978;7.034;2022-10-22T00:36:46;6.75;;;5.45;;
31596;SDS011;18201;50.978;7.034;2022-10-22T00:37:17;8.38;;;6.20;;
31596;SDS011;18201;50.978;7.034;2022-10-22T00:37:48;8.48;;;6.07;;
31596;SDS011;18201;50.978;7.034;2022-10-22T00:38:20;13.75;;;6.40;;
31596;SDS011;18201;50.978;7.034;2022-10-22T00:38:51;7.63;;;6.25;;
31596;SDS011;18201;50.978;7.034;2022-10-22T00:39:23;11.88;;;5.95;;
31596;SDS011;18201;50.978;7.034;2022-10-22T00:39:56;9.10;;;6.00;;
31596;SDS011;18201;50.978;7.034;2022-10-22T00:40:27;10.90;;;6.63;;
31596;SDS011;18201;50.978;7.034;2022-10-22T00:40:58;13.23;;;6.20;;
31596;SDS011;18201;50.978;7.034;2022-10-22T00:41:30;9.13;;;5.82;;
31596;SDS011;18201;50.978;7.034;2022-10-22T00:42:00;8.02;;;5.65;;
31596;SDS011;18201;50.978;7.034;2022-10-22T00:42:31;12.10;;;6.40;;
31596;SDS011;18201;50.978;7.034;2022-10-22T00:43:02;12.27;;;6.20;;
31596;SDS011;18201;50.978;7.034;2022-10-22T00:45:34;11.65;;;5.57;;
31596;SDS011;18201;50.978;7.034;2022-10-22T00:46:05;6.90;;;5.05;;
31596;SDS011;18201;50.978;7.034;2022-10-22T00:46:37;9.00;;;5.88;;
31596;SDS011;18201;50.978;7.034;2022-10-22T00:47:07;10.38;;;5.95;;
31596;SDS011;18201;50.978;7.034;2022-10-22T00:47:39;8.27;;;6.05;;
31596;SDS011;18201;50.978;7.034;2022-10-22T00:48:13;6.82;;;5.68;;
31596;SDS011;18201;50.978;7.034;2022-10-22T00:48:47;10.68;;;6.00;;
31596;SDS011;18201;50.978;7.034;2022-10-22T00:49:19;7.20;;;5.75;;
31596;SDS011;18201;50.978;7.034;2022-10-22T00:49:50;10.55;;;6.50;;
31596;SDS011;18201;50.978;7.034;2022-10-22T00:50:26;8.70;;;5.70;;
31596;SDS011;18201;50.978;7.034;2022-10-22T00:50:59;10.23;;;6.30;;
31596;SDS011;18201;50.978;7.034;2022-10-22T00:51:34;9.18;;;5.50;;
31596;SDS011;18201;50.978;7.034;2022-10-22T00:52:05;11.15;;;5.10;;
31596;SDS011;18201;50.978;7.034;2022-10-22T00:52:36;5.93;;;5.30;;
31596;SDS011;18201;50.978;7.034;2022-10-22T00:53:09;8.73;;;5.35;;
31596;SDS011;18201;50.978;7.034;2022-10-22T00:53:46;8.48;;;5.72;;
31596;SDS011;18201;50.978;7.034;2022-10-22T00:54:19;8.45;;;5.95;;
31596;SDS011;18201;50.978;7.034;2022-10-22T00:54:50;7.47;;;5.25;;
31596;SDS011;18201;50.978;7.034;2022-10-22T00:55:21;7.85;;;5.72;;
31596;SDS011;18201;50.978;7.034;2022-10-22T00:55:55;12.18;;;6.32;;
31596;SDS011;18201;50.978;7.034;2022-10-22T00:56:26;8.02;;;6.10;;
31596;SDS011;18201;50.978;7.034;2022-10-22T00:56:58;8.43;;;6.28;;
31596;SDS011;18201;50.978;7.034;2022-10-22T00:57:29;10.90;;;5.65;;
31596;SDS011;18201;50.978;7.034;2022-10-22T00:58:01;7.80;;;5.32;;
31596;SDS011;18201;50.978;7.034;2022-10-22T00:58:34;7.07;;;5.40;;
31596;SDS011;18201;50.978;7.034;2022-10-22T00:59:08;7.10;;;5.55;;
31596;SDS011;18201;50.978;7.034;2022-10-22T00:59:41;8.77;;;6.38;;
31596;SDS011;18201;50.978;7.034;2022-10-22T01:00:12;10.43;;;6.15;;
31596;SDS011;18201;50.978;7.034;2022-10-22T01:00:46;7.65;;;5.25;;
31596;SDS011;18201;50.978;7.034;2022-10-22T01:01:19;7.60;;;5.93;;
31596;SDS011;18201;50.978;7.034;2022-10-22T01:01:52;11.90;;;5.95;;
31596;SDS011;18201;50.978;7.034;2022-10-22T01:02:24;7.47;;;5.85;;
31596;SDS011;18201;50.978;7.034;2022-10-22T01:02:55;7.35;;;5.57;;
31596;SDS011;18201;50.978;7.034;2022-10-22T01:03:27;9.75;;;5.93;;
31596;SDS011;18201;50.978;7.034;2022-10-22T01:03:59;8.43;;;6.40;;
31596;SDS011;18201;50.978;7.034;2022-10-22T01:04:30;11.10;;;6.20;;
31596;SDS011;18201;50.978;7.034;2022-10-22T01:05:01;11.43;;;6.30;;
31596;SDS011;18201;50.978;7.034;2022-10-22T01:05:38;9.05;;;6.50;;
31596;SDS011;18201;50.978;7.034;2022-10-22T01:06:16;10.10;;;6.70;;
31596;SDS011;18201;50.978;7.034;2022-10-22T01:06:53;7.93;;;4.97;;
31596;SDS011;18201;50.978;7.034;2022-10-22T01:07:25;8.88;;;6.45;;
31596;SDS011;18201;50.978;7.034;2022-10-22T01:07:56;10.68;;;6.32;;
31596;SDS011;18201;50.978;7.034;2022-10-22T01:08:27;13.15;;;6.45;;
31596;SDS011;18201;50.978;7.034;2022-10-22T01:09:08;14.80;;;6.35;;
31596;SDS011;18201;50.978;7.034;2022-10-22T01:09:46;7.10;;;5.68;;
31596;SDS011;18201;50.978;7.034;2022-10-22T01:10:27;9.43;;;5.82;;
31596;SDS011;18201;50.978;7.034;2022-10-22T01:11:11;11.23;;;6.30;;
31596;SDS011;18201;50.978;7.034;2022-10-22T01:11:49;12.75;;;6.30;;
31596;SDS011;18201;50.978;7.034;2022-10-22T01:12:26;8.30;;;5.90;;
31596;SDS011;18201;50.978;7.034;2022-10-22T01:13:11;10.38;;;5.60;;
31596;SDS011;18201;50.978;7.034;2022-10-22T01:13:52;13.57;;;6.45;;
31596;SDS011;18201;50.978;7.034;2022-10-22T01:14:29;10.00;;;5.97;;
31596;SDS011;18201;50.978;7.034;2022-10-22T01:15:08;18.05;;;7.22;;
31596;SDS011;18201;50.978;7.034;2022-10-22T01:15:47;10.93;;;6.63;;
31596;SDS011;18201;50.978;7.034;2022-10-22T01:16:29;12.93;;;6.97;;
31596;SDS011;18201;50.978;7.034;2022-10-22T01:17:06;9.10;;;5.88;;
31596;SDS011;18201;50.978;7.034;2022-10-22T01:17:40;7.65;;;5.30;;
31596;SDS011;18201;50.978;7.034;2022-10-22T01:18:18;18.70;;;6.65;;
31596;SDS011;18201;50.978;7.034;2022-10-22T01:18:55;10.73;;;6.35;;
31596;SDS011;18201;50.978;7.034;2022-10-22T01:19:34;10.02;;;6.50;;
31596;SDS011;18201;50.978;7.034;2022-10-22T01:20:19;9.27;;;5.82;;
31596;SDS011;18201;50.978;7.034;2022-10-22T01:21:12;12.82;;;6.05;;
31596;SDS011;18201;50.978;7.034;2022-10-22T01:21:51;8.18;;;6.18;;
31596;SDS011;18201;50.978;7.034;2022-10-22T01:22:28;8.02;;;6.10;;
31596;SDS011;18201;50.978;7.034;2022-10-22T01:23:05;6.75;;;5.95;;
31596;SDS011;18201;50.978;7.034;2022-10-22T01:23:56;8.85;;;7.40;;
31596;SDS011;18201;50.978;7.034;2022-10-22T01:24:41;11.70;;;6.60;;
31596;SDS011;18201;50.978;7.034;2022-10-22T01:25:30;13.00;;;6.43;;
31596;SDS011;18201;50.978;7.034;2022-10-22T01:26:09;13.85;;;6.50;;
31596;SDS011;18201;50.978;7.034;2022-10-22T01:26:53;10.30;;;6.32;;
31596;SDS011;18201;50.978;7.034;2022-10-22T01:27:34;9.85;;;6.18;;
31596;SDS011;18201;50.978;7.034;2022-10-22T01:28:16;7.53;;;5.80;;
31596;SDS011;18201;50.978;7.034;2022-10-22T01:29:01;18.55;;;7.38;;
31596;SDS011;18201;50.978;7.034;2022-10-22T01:29:40;10.07;;;6.20;;
31596;SDS011;18201;50.978;7.034;2022-10-22T01:30:14;7.75;;;5.53;;
31596;SDS011;18201;50.978;7.034;2022-10-22T01:30:46;14.77;;;6.57;;
31596;SDS011;18201;50.978;7.034;2022-10-22T01:31:21;9.32;;;6.03;;
31596;SDS011;18201;50.978;7.034;2022-10-22T01:31:55;12.07;;;6.85;;
31596;SDS011;18201;50.978;7.034;2022-10-22T01:32:30;12.77;;;6.35;;
31596;SDS011;18201;50.978;7.034;2022-10-22T01:33:07;8.73;;;6.25;;
31596;SDS011;18201;50.978;7.034;2022-10-22T01:33:42;9.30;;;6.63;;
31596;SDS011;18201;50.978;7.034;2022-10-22T01:34:15;8.75;;;6.35;;
31596;SDS011;18201;50.978;7.034;2022-10-22T01:34:49;10.73;;;6.45;;
31596;SDS011;18201;50.978;7.034;2022-10-22T01:35:24;8.02;;;6.18;;
31596;SDS011;18201;50.978;7.034;2022-10-22T01:35:59;10.43;;;6.28;;
31596;SDS011;18201;50.978;7.034;2022-10-22T01:36:31;8.68;;;6.65;;
31596;SDS011;18201;50.978;7.034;2022-10-22T01:37:04;11.45;;;6.78;;
31596;SDS011;18201;50.978;7.034;2022-10-22T01:37:37;11.70;;;7.35;;
31596;SDS011;18201;50.978;7.034;2022-10-22T01:38:16;9.68;;;5.82;;
31596;SDS011;18201;50.978;7.034;2022-10-22T01:38:48;11.27;;;6.43;;
31596;SDS011;18201;50.978;7.034;2022-10-22T01:39:21;12.55;;;6.90;;
31596;SDS011;18201;50.978;7.034;2022-10-22T01:39:53;13.98;;;7.07;;
31596;SDS011;18201;50.978;7.034;2022-10-22T01:40:27;9.68;;;6.07;;
31596;SDS011;18201;50.978;7.034;2022-10-22T01:40:58;10.82;;;6.15;;
31596;SDS011;18201;50.978;7.034;2022-10-22T01:41:30;16.13;;;6.40;;
31596;SDS011;18201;50.978;7.034;2022-10-22T01:42:02;11.32;;;6.43;;
31596;SDS011;18201;50.978;7.034;2022-10-22T01:42:33;8.98;;;7.10;;
31596;SDS011;18201;50.978;7.034;2022-10-22T01:43:04;12.73;;;6.57;;
31596;SDS011;18201;50.978;7.034;2022-10-22T01:43:37;9.73;;;6.55;;
31596;SDS011;18201;50.978;7.034;2022-10-22T01:44:22;8.73;;;6.25;;
31596;SDS011;18201;50.978;7.034;2022-10-22T01:44:53;11.07;;;6.45;;
31596;SDS011;18201;50.978;7.034;2022-10-22T01:45:24;10.57;;;6.53;;
31596;SDS011;18201;50.978;7.034;2022-10-22T01:45:58;8.65;;;6.97;;
31596;SDS011;18201;50.978;7.034;2022-10-22T01:46:31;14.00;;;6.90;;
31596;SDS011;18201;50.978;7.034;2022-10-22T01:47:06;7.10;;;5.78;;
31596;SDS011;18201;50.978;7.034;2022-10-22T01:47:48;12.50;;;7.30;;
31596;SDS011;18201;50.978;7.034;2022-10-22T01:48:29;14.52;;;6.50;;
31596;SDS011;18201;50.978;7.034;2022-10-22T01:49:11;10.30;;;6.55;;
31596;SDS011;18201;50.978;7.034;2022-10-22T01:49:50;11.85;;;6.88;;
31596;SDS011;18201;50.978;7.034;2022-10-22T01:50:41;6.40;;;5.78;;
31596;SDS011;18201;50.978;7.034;2022-10-22T01:51:39;11.02;;;6.28;;
31596;SDS011;18201;50.978;7.034;2022-10-22T01:52:22;11.40;;;7.10;;
31596;SDS011;18201;50.978;7.034;2022-10-22T01:53:55;9.45;;;6.85;;
31596;SDS011;18201;50.978;7.034;2022-10-22T01:54:33;10.43;;;6.53;;
31596;SDS011;18201;50.978;7.034;2022-10-22T01:55:14;8.65;;;6.50;;
31596;SDS011;18201;50.978;7.034;2022-10-22T01:56:05;16.83;;;6.95;;
31596;SDS011;18201;50.978;7.034;2022-10-22T01:56:49;14.23;;;7.10;;
31596;SDS011;18201;50.978;7.034;2022-10-22T01:57:28;10.20;;;6.88;;
31596;SDS011;18201;50.978;7.034;2022-10-22T01:58:08;13.48;;;6.97;;
31596;SDS011;18201;50.978;7.034;2022-10-22T01:58:51;15.45;;;6.45;;
31596;SDS011;18201;50.978;7.034;2022-10-22T02:00:08;11.32;;;6.25;;
31596;SDS011;18201;50.978;7.034;2022-10-22T02:00:43;12.63;;;6.45;;
31596;SDS011;18201;50.978;7.034;2022-10-22T02:01:21;10.43;;;6.10;;
31596;SDS011;18201;50.978;7.034;2022-10-22T02:01:57;12.98;;;6.22;;
31596;SDS011;18201;50.978;7.034;2022-10-22T02:02:35;12.38;;;6.45;;
31596;SDS011;18201;50.978;7.034;2022-10-22T02:03:13;10.43;;;6.50;;
31596;SDS011;18201;50.978;7.034;2022-10-22T02:03:49;6.75;;;5.57;;
31596;SDS011;18201;50.978;7.034;2022-10-22T02:04:27;15.43;;;6.57;;
31596;SDS011;18201;50.978;7.034;2022-10-22T02:05:04;15.65;;;6.32;;
31596;SDS011;18201;50.978;7.034;2022-10-22T02:05:40;9.38;;;6.85;;
31596;SDS011;18201;50.978;7.034;2022-10-22T02:06:16;15.90;;;6.68;;
31596;SDS011;18201;50.978;7.034;2022-10-22T02:06:50;15.30;;;7.18;;
31596;SDS011;18201;50.978;7.034;2022-10-22T02:07:25;14.18;;;6.97;;
31596;SDS011;18201;50.978;7.034;2022-10-22T02:08:00;9.70;;;6.70;;
31596;SDS011;18201;50.978;7.034;2022-10-22T02:08:33;12.45;;;6.88;;
31596;SDS011;18201;50.978;7.034;2022-10-22T02:09:05;15.73;;;7.20;;
31596;SDS011;18201;50.978;7.034;2022-10-22T02:09:39;11.90;;;6.93;;
31596;SDS011;18201;50.978;7.034;2022-10-22T02:10:12;13.50;;;6.82;;
31596;SDS011;18201;50.978;7.034;2022-10-22T02:10:44;13.32;;;7.10;;
31596;SDS011;18201;50.978;7.034;2022-10-22T02:11:18;12.32;;;6.90;;
31596;SDS011;18201;50.978;7.034;2022-10-22T02:11:49;13.00;;;6.07;;
31596;SDS011;18201;50.978;7.034;2022-10-22T02:12:20;8.52;;;6.72;;
31596;SDS011;18201;50.978;7.034;2022-10-22T02:12:54;13.70;;;6.30;;
31596;SDS011;18201;50.978;7.034;2022-10-22T02:13:29;18.92;;;6.95;;
31596;SDS011;18201;50.978;7.034;2022-10-22T02:14:05;10.15;;;6.32;;
31596;SDS011;18201;50.978;7.034;2022-10-22T02:14:41;13.38;;;7.07;;
31596;SDS011;18201;50.978;7.034;2022-10-22T02:15:13;11.93;;;6.78;;
31596;SDS011;18201;50.978;7.034;2022-10-22T02:15:48;10.85;;;6.78;;
31596;SDS011;18201;50.978;7.034;2022-10-22T02:16:24;10.50;;;6.28;;
31596;SDS011;18201;50.978;7.034;2022-10-22T02:16:58;13.75;;;6.75;;
31596;SDS011;18201;50.978;7.034;2022-10-22T02:17:30;9.07;;;6.85;;
31596;SDS011;18201;50.978;7.034;2022-10-22T02:18:05;8.23;;;6.97;;
31596;SDS011;18201;50.978;7.034;2022-10-22T02:18:39;9.73;;;5.80;;
31596;SDS011;18201;50.978;7.034;2022-10-22T02:19:13;9.95;;;6.82;;
31596;SDS011;18201;50.978;7.034;2022-10-22T02:19:51;8.20;;;6.18;;
31596;SDS011;18201;50.978;7.034;2022-10-22T02:20:26;12.30;;;5.95;;
31596;SDS011;18201;50.978;7.034;2022-10-22T02:20:58;12.57;;;6.40;;
31596;SDS011;18201;50.978;7.034;2022-10-22T02:21:31;9.90;;;6.13;;
31596;SDS011;18201;50.978;7.034;2022-10-22T02:22:02;9.77;;;6.82;;
31596;SDS011;18201;50.978;7.034;2022-10-22T02:22:33;12.75;;;7.05;;
31596;SDS011;18201;50.978;7.034;2022-10-22T02:23:06;16.58;;;6.72;;
31596;SDS011;18201;50.978;7.034;2022-10-22T02:23:39;8.98;;;6.25;;
31596;SDS011;18201;50.978;7.034;2022-10-22T02:24:09;7.95;;;6.35;;
31596;SDS011;18201;50.978;7.034;2022-10-22T02:24:42;10.93;;;6.43;;
31596;SDS011;18201;50.978;7.034;2022-10-22T02:25:13;13.93;;;6.70;;
31596;SDS011;18201;50.978;7.034;2022-10-22T02:25:46;9.70;;;5.90;;
31596;SDS011;18201;50.978;7.034;2022-10-22T02:26:22;12.50;;;6.72;;
31596;SDS011;18201;50.978;7.034;2022-10-22T02:27:02;11.38;;;5.70;;
31596;SDS011;18201;50.978;7.034;2022-10-22T02:27:39;10.30;;;7.00;;
31596;SDS011;18201;50.978;7.034;2022-10-22T02:28:15;18.65;;;7.07;;
31596;SDS011;18201;50.978;7.034;2022-10-22T02:28:55;18.92;;;6.68;;
31596;SDS011;18201;50.978;7.034;2022-10-22T02:29:29;15.48;;;7.68;;
31596;SDS011;18201;50.978;7.034;2022-10-22T02:30:08;10.85;;;6.68;;
31596;SDS011;18201;50.978;7.034;2022-10-22T02:30:44;17.10;;;7.28;;
31596;SDS011;18201;50.978;7.034;2022-10-22T02:31:19;14.55;;;7.88;;
31596;SDS011;18201;50.978;7.034;2022-10-22T02:31:54;19.73;;;7.05;;
31596;SDS011;18201;50.978;7.034;2022-10-22T02:32:30;15.70;;;7.53;;
31596;SDS011;18201;50.978;7.034;2022-10-22T02:33:05;11.85;;;7.22;;
31596;SDS011;18201;50.978;7.034;2022-10-22T02:33:43;11.65;;;6.97;;
31596;SDS011;18201;50.978;7.034;2022-10-22T02:34:17;16.17;;;8.20;;
31596;SDS011;18201;50.978;7.034;2022-10-22T02:34:51;13.88;;;8.27;;
31596;SDS011;18201;50.978;7.034;2022-10-22T02:35:25;18.75;;;8.05;;
31596;SDS011;18201;50.978;7.034;2022-10-22T02:35:58;20.67;;;7.50;;
31596;SDS011;18201;50.978;7.034;2022-10-22T02:36:31;17.02;;;8.32;;
31596;SDS011;18201;50.978;7.034;2022-10-22T02:37:02;13.45;;;7.93;;
31596;SDS011;18201;50.978;7.034;2022-10-22T02:37:36;18.98;;;7.68;;
31596;SDS011;18201;50.978;7.034;2022-10-22T02:38:08;13.77;;;7.65;;
31596;SDS011;18201;50.978;7.034;2022-10-22T02:38:40;12.93;;;8.70;;
31596;SDS011;18201;50.978;7.034;2022-10-22T02:39:11;15.40;;;7.93;;
31596;SDS011;18201;50.978;7.034;2022-10-22T02:39:44;17.27;;;9.05;;
31596;SDS011;18201;50.978;7.034;2022-10-22T02:40:16;12.02;;;7.70;;
31596;SDS011;18201;50.978;7.034;2022-10-22T02:40:47;10.73;;;7.82;;
31596;SDS011;18201;50.978;7.034;2022-10-22T02:41:19;15.68;;;9.60;;
31596;SDS011;18201;50.978;7.034;2022-10-22T02:41:50;12.52;;;8.15;;
31596;SDS011;18201;50.978;7.034;2022-10-22T02:42:22;13.30;;;7.88;;
31596;SDS011;18201;50.978;7.034;2022-10-22T02:42:55;16.02;;;8.90;;
31596;SDS011;18201;50.978;7.034;2022-10-22T02:43:27;17.20;;;8.20;;
31596;SDS011;18201;50.978;7.034;2022-10-22T02:43:58;12.95;;;7.90;;
31596;SDS011;18201;50.978;7.034;2022-10-22T02:44:31;18.23;;;7.93;;
31596;SDS011;18201;50.978;7.034;2022-10-22T02:45:02;11.77;;;8.27;;
31596;SDS011;18201;50.978;7.034;2022-10-22T02:45:35;12.65;;;7.95;;
31596;SDS011;18201;50.978;7.034;2022-10-22T02:46:07;18.50;;;8.40;;
31596;SDS011;18201;50.978;7.034;2022-10-22T02:46:39;11.07;;;8.13;;
31596;SDS011;18201;50.978;7.034;2022-10-22T02:47:12;14.20;;;8.80;;
31596;SDS011;18201;50.978;7.034;2022-10-22T02:47:44;17.60;;;8.38;;
31596;SDS011;18201;50.978;7.034;2022-10-22T02:48:14;16.80;;;8.57;;
31596;SDS011;18201;50.978;7.034;2022-10-22T02:48:46;12.48;;;9.43;;
31596;SDS011;18201;50.978;7.034;2022-10-22T02:49:18;14.85;;;8.60;;
31596;SDS011;18201;50.978;7.034;2022-10-22T02:49:48;10.73;;;7.72;;
31596;SDS011;18201;50.978;7.034;2022-10-22T02:50:19;15.63;;;8.80;;
31596;SDS011;18201;50.978;7.034;2022-10-22T02:50:50;12.32;;;7.97;;
31596;SDS011;18201;50.978;7.034;2022-10-22T02:51:22;13.75;;;8.25;;
31596;SDS011;18201;50.978;7.034;2022-10-22T02:51:53;16.77;;;8.60;;
31596;SDS011;18201;50.978;7.034;2022-10-22T02:52:24;17.33;;;8.73;;
31596;SDS011;18201;50.978;7.034;2022-10-22T02:52:56;8.73;;;7.82;;
31596;SDS011;18201;50.978;7.034;2022-10-22T02:53:27;17.15;;;9.25;;
31596;SDS011;18201;50.978;7.034;2022-10-22T02:53:58;12.77;;;8.38;;
31596;SDS011;18201;50.978;7.034;2022-10-22T02:54:30;17.63;;;8.77;;
31596;SDS011;18201;50.978;7.034;2022-10-22T02:55:01;10.32;;;8.80;;
31596;SDS011;18201;50.978;7.034;2022-10-22T02:55:32;18.75;;;8.93;;
31596;SDS011;18201;50.978;7.034;2022-10-22T02:56:02;19.23;;;9.70;;
31596;SDS011;18201;50.978;7.034;2022-10-22T02:56:35;12.55;;;8.50;;
31596;SDS011;18201;50.978;7.034;2022-10-22T02:57:05;15.98;;;9.55;;
31596;SDS011;18201;50.978;7.034;2022-10-22T02:57:36;12.48;;;8.55;;
31596;SDS011;18201;50.978;7.034;2022-10-22T02:58:08;15.73;;;8.77;;
31596;SDS011;18201;50.978;7.034;2022-10-22T02:58:40;12.80;;;8.90;;
31596;SDS011;18201;50.978;7.034;2022-10-22T02:59:11;19.70;;;8.73;;
31596;SDS011;18201;50.978;7.034;2022-10-22T02:59:42;16.83;;;9.45;;
31596;SDS011;18201;50.978;7.034;2022-10-22T03:00:14;15.77;;;9.02;;
31596;SDS011;18201;50.978;7.034;2022-10-22T03:00:46;16.23;;;9.65;;
31596;SDS011;18201;50.978;7.034;2022-10-22T03:01:17;10.57;;;8.57;;
31596;SDS011;18201;50.978;7.034;2022-10-22T03:01:49;15.23;;;9.00;;
31596;SDS011;18201;50.978;7.034;2022-10-22T03:02:20;17.88;;;9.52;;
31596;SDS011;18201;50.978;7.034;2022-10-22T03:02:51;17.25;;;9.23;;
31596;SDS011;18201;50.978;7.034;2022-10-22T03:03:22;16.08;;;9.65;;
31596;SDS011;18201;50.978;7.034;2022-10-22T03:03:54;12.88;;;8.68;;
31596;SDS011;18201;50.978;7.034;2022-10-22T03:04:24;16.55;;;9.38;;
31596;SDS011;18201;50.978;7.034;2022-10-22T03:04:56;18.80;;;9.52;;
31596;SDS011;18201;50.978;7.034;2022-10-22T03:05:27;15.75;;;9.07;;
31596;SDS011;18201;50.978;7.034;2022-10-22T03:05:59;14.15;;;9.27;;
31596;SDS011;18201;50.978;7.034;2022-10-22T03:06:30;15.70;;;9.35;;
31596;SDS011;18201;50.978;7.034;2022-10-22T03:07:01;17.13;;;9.32;;
31596;SDS011;18201;50.978;7.034;2022-10-22T03:07:33;17.20;;;9.70;;
31596;SDS011;18201;50.978;7.034;2022-10-22T03:08:04;12.15;;;9.43;;
31596;SDS011;18201;50.978;7.034;2022-10-22T03:08:35;14.18;;;9.40;;
31596;SDS011;18201;50.978;7.034;2022-10-22T03:09:06;12.70;;;9.10;;
31596;SDS011;18201;50.978;7.034;2022-10-22T03:09:37;14.95;;;10.68;;
31596;SDS011;18201;50.978;7.034;2022-10-22T03:10:08;19.20;;;10.55;;
31596;SDS011;18201;50.978;7.034;2022-10-22T03:10:39;14.65;;;9.15;;
31596;SDS011;18201;50.978;7.034;2022-10-22T03:11:11;17.20;;;9.35;;
31596;SDS011;18201;50.978;7.034;2022-10-22T03:11:42;13.43;;;9.00;;
31596;SDS011;18201;50.978;7.034;2022-10-22T03:12:13;15.82;;;9.75;;
31596;SDS011;18201;50.978;7.034;2022-10-22T03:12:45;15.32;;;9.23;;
31596;SDS011;18201;50.978;7.034;2022-10-22T03:13:17;21.48;;;9.40;;
31596;SDS011;18201;50.978;7.034;2022-10-22T03:13:48;14.18;;;9.73;;
31596;SDS011;18201;50.978;7.034;2022-10-22T03:14:20;14.35;;;9.48;;
31596;SDS011;18201;50.978;7.034;2022-10-22T03:14:51;15.57;;;9.98;;
31596;SDS011;18201;50.978;7.034;2022-10-22T03:15:21;18.05;;;10.18;;
31596;SDS011;18201;50.978;7.034;2022-10-22T03:15:55;22.95;;;10.23;;
31596;SDS011;18201;50.978;7.034;2022-10-22T03:16:25;23.58;;;10.82;;
31596;SDS011;18201;50.978;7.034;2022-10-22T03:16:56;13.90;;;10.48;;
31596;SDS011;18201;50.978;7.034;2022-10-22T03:17:28;18.33;;;9.95;;
31596;SDS011;18201;50.978;7.034;2022-10-22T03:17:59;16.17;;;9.55;;
31596;SDS011;18201;50.978;7.034;2022-10-22T03:18:30;16.40;;;10.90;;
31596;SDS011;18201;50.978;7.034;2022-10-22T03:19:02;14.48;;;10.13;;
31596;SDS011;18201;50.978;7.034;2022-10-22T03:19:33;20.27;;;10.00;;
31596;SDS011;18201;50.978;7.034;2022-10-22T03:20:05;17.02;;;9.90;;
31596;SDS011;18201;50.978;7.034;2022-10-22T03:20:36;15.48;;;10.63;;
31596;SDS011;18201;50.978;7.034;2022-10-22T03:21:09;16.80;;;9.82;;
31596;SDS011;18201;50.978;7.034;2022-10-22T03:21:44;16.85;;;10.32;;
31596;SDS011;18201;50.978;7.034;2022-10-22T03:22:18;14.93;;;10.25;;
31596;SDS011;18201;50.978;7.034;2022-10-22T03:22:52;21.45;;;10.10;;
31596;SDS011;18201;50.978;7.034;2022-10-22T03:23:25;18.70;;;10.77;;
31596;SDS011;18201;50.978;7.034;2022-10-22T03:23:55;19.25;;;9.45;;
31596;SDS011;18201;50.978;7.034;2022-10-22T03:24:29;15.20;;;9.80;;